Saint Helena Island, United Kingdom
Current Conditions -  °F | °C
As of 1:15 AM on Tuesday 25 Nov 2014 (Local Time) from FHAW Reporting Station
Rain Showers Rain Showers  
Wind Chill: 73°   Ceiling: 3200
Heat Index: 73°   Visibility: 4mi
Dew Point: 66°   Wind: 15mph
Humidity: 78%   Direction: 130°SE
Pressure: 30"   Gusts: NA
Location:  15.93°S, 5.07°W
Report Text: FHAW 250015Z 13013KT 6000 -SHRA FEW010 SCT016 BKN032 23/19 Q1016 WHTTEMPO 4000 -SHRA SCT012 GRN
Loading
Personal Weather Stations






























Interactive Weather Map New forecast layout! Learn more

10-Day Weather Forecast

Advertisements
Track Severe Weather on mobile